sensor_id;sensor_type;location;lat;lon;timestamp;P1;durP1;ratioP1;P2;durP2;ratioP2
12625;SDS011;6378;42.684;23.372;2022-11-15T00:01:05;183.30;;;96.50;;
12625;SDS011;6378;42.684;23.372;2022-11-15T00:03:32;174.33;;;93.70;;
12625;SDS011;6378;42.684;23.372;2022-11-15T00:06:01;192.13;;;98.87;;
12625;SDS011;6378;42.684;23.372;2022-11-15T00:08:31;169.50;;;92.60;;
12625;SDS011;6378;42.684;23.372;2022-11-15T00:10:58;174.00;;;91.97;;
12625;SDS011;6378;42.684;23.372;2022-11-15T00:13:24;174.17;;;93.67;;
12625;SDS011;6378;42.684;23.372;2022-11-15T00:15:50;136.07;;;71.53;;
12625;SDS011;6378;42.684;23.372;2022-11-15T00:18:15;131.43;;;64.33;;
12625;SDS011;6378;42.684;23.372;2022-11-15T00:20:41;144.43;;;75.07;;
12625;SDS011;6378;42.684;23.372;2022-11-15T00:23:07;146.37;;;79.03;;
12625;SDS011;6378;42.684;23.372;2022-11-15T00:25:33;128.13;;;67.23;;
12625;SDS011;6378;42.684;23.372;2022-11-15T00:27:59;131.03;;;67.83;;
12625;SDS011;6378;42.684;23.372;2022-11-15T00:30:26;118.43;;;59.63;;
12625;SDS011;6378;42.684;23.372;2022-11-15T00:32:52;106.40;;;54.60;;
12625;SDS011;6378;42.684;23.372;2022-11-15T00:35:18;104.87;;;56.57;;
12625;SDS011;6378;42.684;23.372;2022-11-15T00:37:44;131.77;;;69.10;;
12625;SDS011;6378;42.684;23.372;2022-11-15T00:40:10;132.07;;;65.70;;
12625;SDS011;6378;42.684;23.372;2022-11-15T00:42:37;114.20;;;58.47;;
12625;SDS011;6378;42.684;23.372;2022-11-15T00:45:03;124.20;;;62.30;;
12625;SDS011;6378;42.684;23.372;2022-11-15T00:47:29;120.50;;;61.03;;
12625;SDS011;6378;42.684;23.372;2022-11-15T00:49:54;126.27;;;64.73;;
12625;SDS011;6378;42.684;23.372;2022-11-15T00:52:19;116.53;;;59.30;;
12625;SDS011;6378;42.684;23.372;2022-11-15T00:54:45;113.33;;;57.23;;
12625;SDS011;6378;42.684;23.372;2022-11-15T00:57:10;154.07;;;84.40;;
12625;SDS011;6378;42.684;23.372;2022-11-15T00:59:36;147.90;;;77.00;;
12625;SDS011;6378;42.684;23.372;2022-11-15T01:02:01;136.37;;;72.67;;
12625;SDS011;6378;42.684;23.372;2022-11-15T01:04:26;122.80;;;61.03;;
12625;SDS011;6378;42.684;23.372;2022-11-15T01:06:52;116.23;;;61.67;;
12625;SDS011;6378;42.684;23.372;2022-11-15T01:09:18;124.03;;;64.37;;
12625;SDS011;6378;42.684;23.372;2022-11-15T01:11:43;121.87;;;66.30;;
12625;SDS011;6378;42.684;23.372;2022-11-15T01:14:09;115.50;;;61.23;;
12625;SDS011;6378;42.684;23.372;2022-11-15T01:16:34;134.33;;;69.70;;
12625;SDS011;6378;42.684;23.372;2022-11-15T01:19:00;121.27;;;62.17;;
12625;SDS011;6378;42.684;23.372;2022-11-15T01:21:25;135.33;;;64.63;;
12625;SDS011;6378;42.684;23.372;2022-11-15T01:23:54;128.00;;;66.00;;
12625;SDS011;6378;42.684;23.372;2022-11-15T01:26:21;142.70;;;73.07;;
12625;SDS011;6378;42.684;23.372;2022-11-15T01:28:47;132.37;;;72.50;;
12625;SDS011;6378;42.684;23.372;2022-11-15T01:31:14;135.60;;;73.10;;
12625;SDS011;6378;42.684;23.372;2022-11-15T01:33:41;164.90;;;92.60;;
12625;SDS011;6378;42.684;23.372;2022-11-15T01:36:08;164.40;;;87.97;;
12625;SDS011;6378;42.684;23.372;2022-11-15T01:38:36;147.70;;;76.43;;
12625;SDS011;6378;42.684;23.372;2022-11-15T01:41:02;143.13;;;74.67;;
12625;SDS011;6378;42.684;23.372;2022-11-15T01:43:32;154.13;;;83.00;;
12625;SDS011;6378;42.684;23.372;2022-11-15T01:46:04;169.20;;;85.33;;
12625;SDS011;6378;42.684;23.372;2022-11-15T01:48:40;168.40;;;85.60;;
12625;SDS011;6378;42.684;23.372;2022-11-15T01:51:09;222.43;;;113.90;;
12625;SDS011;6378;42.684;23.372;2022-11-15T01:53:38;207.93;;;110.37;;
12625;SDS011;6378;42.684;23.372;2022-11-15T01:56:08;227.33;;;115.73;;
12625;SDS011;6378;42.684;23.372;2022-11-15T01:58:37;189.00;;;101.17;;
12625;SDS011;6378;42.684;23.372;2022-11-15T02:01:03;257.07;;;135.60;;
12625;SDS011;6378;42.684;23.372;2022-11-15T02:03:39;248.10;;;127.63;;
12625;SDS011;6378;42.684;23.372;2022-11-15T02:06:25;280.03;;;148.97;;
12625;SDS011;6378;42.684;23.372;2022-11-15T02:08:51;296.83;;;153.00;;
12625;SDS011;6378;42.684;23.372;2022-11-15T02:11:16;248.77;;;131.80;;
12625;SDS011;6378;42.684;23.372;2022-11-15T02:13:42;260.07;;;132.67;;
12625;SDS011;6378;42.684;23.372;2022-11-15T02:16:11;252.03;;;134.73;;
12625;SDS011;6378;42.684;23.372;2022-11-15T02:19:08;252.87;;;127.80;;
12625;SDS011;6378;42.684;23.372;2022-11-15T02:38:09;238.83;;;123.20;;
12625;SDS011;6378;42.684;23.372;2022-11-15T02:43:37;220.50;;;112.07;;
12625;SDS011;6378;42.684;23.372;2022-11-15T02:49:15;208.50;;;104.33;;
12625;SDS011;6378;42.684;23.372;2022-11-15T02:51:41;214.70;;;101.47;;
12625;SDS011;6378;42.684;23.372;2022-11-15T02:54:13;213.73;;;92.93;;
12625;SDS011;6378;42.684;23.372;2022-11-15T02:56:45;402.17;;;98.23;;
12625;SDS011;6378;42.684;23.372;2022-11-15T02:59:37;290.73;;;88.93;;
12625;SDS011;6378;42.684;23.372;2022-11-15T03:12:57;221.77;;;74.33;;
12625;SDS011;6378;42.684;23.372;2022-11-15T03:15:31;246.73;;;78.00;;
12625;SDS011;6378;42.684;23.372;2022-11-15T03:18:05;180.80;;;73.43;;
12625;SDS011;6378;42.684;23.372;2022-11-15T03:20:40;227.73;;;78.13;;
12625;SDS011;6378;42.684;23.372;2022-11-15T03:23:08;403.90;;;82.47;;
12625;SDS011;6378;42.684;23.372;2022-11-15T03:25:36;436.73;;;88.80;;
12625;SDS011;6378;42.684;23.372;2022-11-15T03:28:06;240.67;;;75.17;;
12625;SDS011;6378;42.684;23.372;2022-11-15T03:30:35;192.90;;;66.83;;
12625;SDS011;6378;42.684;23.372;2022-11-15T03:33:02;227.40;;;70.30;;
12625;SDS011;6378;42.684;23.372;2022-11-15T03:35:33;195.23;;;66.07;;
12625;SDS011;6378;42.684;23.372;2022-11-15T03:43:30;169.87;;;59.13;;
12625;SDS011;6378;42.684;23.372;2022-11-15T03:46:11;134.30;;;54.87;;
12625;SDS011;6378;42.684;23.372;2022-11-15T03:48:41;159.90;;;62.73;;
12625;SDS011;6378;42.684;23.372;2022-11-15T03:51:28;140.00;;;55.30;;
12625;SDS011;6378;42.684;23.372;2022-11-15T03:53:54;205.20;;;62.27;;
12625;SDS011;6378;42.684;23.372;2022-11-15T03:56:20;186.27;;;59.03;;
12625;SDS011;6378;42.684;23.372;2022-11-15T03:58:45;138.47;;;56.20;;
12625;SDS011;6378;42.684;23.372;2022-11-15T04:01:11;112.50;;;53.80;;
12625;SDS011;6378;42.684;23.372;2022-11-15T04:03:36;112.10;;;51.27;;
12625;SDS011;6378;42.684;23.372;2022-11-15T04:06:01;108.33;;;51.47;;
12625;SDS011;6378;42.684;23.372;2022-11-15T04:08:27;103.87;;;50.30;;
12625;SDS011;6378;42.684;23.372;2022-11-15T04:10:52;104.23;;;48.90;;
12625;SDS011;6378;42.684;23.372;2022-11-15T04:13:18;104.83;;;53.00;;
12625;SDS011;6378;42.684;23.372;2022-11-15T04:15:43;102.70;;;50.30;;
12625;SDS011;6378;42.684;23.372;2022-11-15T04:18:08;93.87;;;48.50;;
12625;SDS011;6378;42.684;23.372;2022-11-15T04:20:34;89.07;;;48.50;;
12625;SDS011;6378;42.684;23.372;2022-11-15T04:23:19;95.00;;;49.50;;
12625;SDS011;6378;42.684;23.372;2022-11-15T04:26:04;98.40;;;50.77;;
12625;SDS011;6378;42.684;23.372;2022-11-15T04:28:36;96.97;;;52.50;;
12625;SDS011;6378;42.684;23.372;2022-11-15T04:31:21;113.83;;;56.47;;
12625;SDS011;6378;42.684;23.372;2022-11-15T04:33:46;104.80;;;56.30;;
12625;SDS011;6378;42.684;23.372;2022-11-15T04:36:12;110.07;;;57.93;;
12625;SDS011;6378;42.684;23.372;2022-11-15T04:38:56;103.00;;;55.80;;
12625;SDS011;6378;42.684;23.372;2022-11-15T04:41:21;103.87;;;57.50;;
12625;SDS011;6378;42.684;23.372;2022-11-15T04:43:46;107.13;;;56.20;;
12625;SDS011;6378;42.684;23.372;2022-11-15T04:46:12;100.07;;;55.10;;
12625;SDS011;6378;42.684;23.372;2022-11-15T04:48:37;101.03;;;53.53;;
12625;SDS011;6378;42.684;23.372;2022-11-15T04:51:03;101.03;;;54.57;;
12625;SDS011;6378;42.684;23.372;2022-11-15T04:53:28;94.20;;;52.47;;
12625;SDS011;6378;42.684;23.372;2022-11-15T04:55:54;95.87;;;52.60;;
12625;SDS011;6378;42.684;23.372;2022-11-15T04:58:19;91.03;;;47.93;;
12625;SDS011;6378;42.684;23.372;2022-11-15T05:00:44;96.50;;;52.37;;
12625;SDS011;6378;42.684;23.372;2022-11-15T05:03:10;94.07;;;50.57;;
12625;SDS011;6378;42.684;23.372;2022-11-15T05:05:54;98.57;;;49.67;;
12625;SDS011;6378;42.684;23.372;2022-11-15T05:08:19;104.43;;;51.97;;
12625;SDS011;6378;42.684;23.372;2022-11-15T05:10:45;100.50;;;49.10;;
12625;SDS011;6378;42.684;23.372;2022-11-15T05:13:10;119.20;;;40.37;;
12625;SDS011;6378;42.684;23.372;2022-11-15T05:15:35;97.67;;;44.10;;
12625;SDS011;6378;42.684;23.372;2022-11-15T05:18:01;88.80;;;45.00;;
12625;SDS011;6378;42.684;23.372;2022-11-15T05:20:26;98.70;;;45.37;;
12625;SDS011;6378;42.684;23.372;2022-11-15T05:22:52;112.93;;;44.70;;
12625;SDS011;6378;42.684;23.372;2022-11-15T05:25:20;99.77;;;42.37;;
12625;SDS011;6378;42.684;23.372;2022-11-15T05:27:45;191.57;;;45.97;;
12625;SDS011;6378;42.684;23.372;2022-11-15T05:30:11;207.67;;;47.77;;
12625;SDS011;6378;42.684;23.372;2022-11-15T05:32:36;110.87;;;41.83;;
12625;SDS011;6378;42.684;23.372;2022-11-15T05:35:02;122.93;;;35.30;;
12625;SDS011;6378;42.684;23.372;2022-11-15T05:37:31;120.87;;;35.37;;
12625;SDS011;6378;42.684;23.372;2022-11-15T05:39:57;227.53;;;38.67;;
12625;SDS011;6378;42.684;23.372;2022-11-15T05:42:22;240.30;;;52.40;;
12625;SDS011;6378;42.684;23.372;2022-11-15T05:44:51;217.47;;;59.80;;
12625;SDS011;6378;42.684;23.372;2022-11-15T05:47:17;187.97;;;57.90;;
12625;SDS011;6378;42.684;23.372;2022-11-15T05:49:49;134.70;;;58.80;;
12625;SDS011;6378;42.684;23.372;2022-11-15T05:52:17;299.37;;;70.63;;
12625;SDS011;6378;42.684;23.372;2022-11-15T05:54:46;140.90;;;47.33;;
12625;SDS011;6378;42.684;23.372;2022-11-15T05:57:12;176.70;;;56.97;;
12625;SDS011;6378;42.684;23.372;2022-11-15T05:59:38;166.93;;;50.40;;
12625;SDS011;6378;42.684;23.372;2022-11-15T06:02:05;195.67;;;59.13;;
12625;SDS011;6378;42.684;23.372;2022-11-15T06:04:30;295.63;;;72.17;;
12625;SDS011;6378;42.684;23.372;2022-11-15T06:06:57;155.03;;;55.77;;
12625;SDS011;6378;42.684;23.372;2022-11-15T06:09:23;124.57;;;45.37;;
12625;SDS011;6378;42.684;23.372;2022-11-15T06:11:49;84.03;;;34.47;;
12625;SDS011;6378;42.684;23.372;2022-11-15T06:14:14;78.23;;;37.03;;
12625;SDS011;6378;42.684;23.372;2022-11-15T06:16:40;70.47;;;34.27;;
12625;SDS011;6378;42.684;23.372;2022-11-15T06:19:06;70.17;;;29.40;;
12625;SDS011;6378;42.684;23.372;2022-11-15T06:21:32;69.57;;;30.80;;
12625;SDS011;6378;42.684;23.372;2022-11-15T06:23:58;122.03;;;47.63;;
12625;SDS011;6378;42.684;23.372;2022-11-15T06:26:23;117.87;;;45.73;;
12625;SDS011;6378;42.684;23.372;2022-11-15T06:28:49;106.43;;;48.60;;
12625;SDS011;6378;42.684;23.372;2022-11-15T06:31:14;78.20;;;37.03;;
12625;SDS011;6378;42.684;23.372;2022-11-15T06:33:40;60.10;;;27.47;;
12625;SDS011;6378;42.684;23.372;2022-11-15T06:36:06;52.17;;;24.87;;
12625;SDS011;6378;42.684;23.372;2022-11-15T06:38:34;58.37;;;26.47;;
12625;SDS011;6378;42.684;23.372;2022-11-15T06:41:07;58.53;;;26.87;;
12625;SDS011;6378;42.684;23.372;2022-11-15T06:43:34;66.87;;;32.00;;
12625;SDS011;6378;42.684;23.372;2022-11-15T06:46:01;81.70;;;36.37;;
12625;SDS011;6378;42.684;23.372;2022-11-15T06:48:28;85.70;;;36.87;;
12625;SDS011;6378;42.684;23.372;2022-11-15T06:50:55;64.90;;;29.70;;
12625;SDS011;6378;42.684;23.372;2022-11-15T06:53:22;67.43;;;30.03;;
12625;SDS011;6378;42.684;23.372;2022-11-15T06:55:48;72.00;;;29.40;;
12625;SDS011;6378;42.684;23.372;2022-11-15T06:58:14;71.23;;;29.33;;
12625;SDS011;6378;42.684;23.372;2022-11-15T07:00:40;65.77;;;29.30;;
12625;SDS011;6378;42.684;23.372;2022-11-15T07:03:05;78.50;;;35.13;;
12625;SDS011;6378;42.684;23.372;2022-11-15T07:05:31;84.70;;;34.00;;
12625;SDS011;6378;42.684;23.372;2022-11-15T07:07:57;90.20;;;35.73;;
12625;SDS011;6378;42.684;23.372;2022-11-15T07:10:23;44.97;;;22.30;;
12625;SDS011;6378;42.684;23.372;2022-11-15T07:12:50;56.20;;;24.97;;
12625;SDS011;6378;42.684;23.372;2022-11-15T07:15:22;71.97;;;29.30;;
12625;SDS011;6378;42.684;23.372;2022-11-15T07:17:49;76.37;;;31.33;;
12625;SDS011;6378;42.684;23.372;2022-11-15T07:20:15;102.80;;;35.43;;
12625;SDS011;6378;42.684;23.372;2022-11-15T07:22:41;70.57;;;31.00;;
12625;SDS011;6378;42.684;23.372;2022-11-15T07:25:07;78.27;;;31.13;;
12625;SDS011;6378;42.684;23.372;2022-11-15T07:27:33;75.67;;;31.70;;
12625;SDS011;6378;42.684;23.372;2022-11-15T07:29:59;124.67;;;39.23;;
12625;SDS011;6378;42.684;23.372;2022-11-15T07:32:25;69.33;;;32.43;;
12625;SDS011;6378;42.684;23.372;2022-11-15T07:34:51;73.07;;;31.47;;
12625;SDS011;6378;42.684;23.372;2022-11-15T07:37:16;71.73;;;31.73;;
12625;SDS011;6378;42.684;23.372;2022-11-15T07:39:42;71.40;;;30.90;;
12625;SDS011;6378;42.684;23.372;2022-11-15T07:42:08;69.63;;;31.47;;
12625;SDS011;6378;42.684;23.372;2022-11-15T07:44:52;77.20;;;32.47;;
12625;SDS011;6378;42.684;23.372;2022-11-15T07:47:17;71.20;;;32.60;;
12625;SDS011;6378;42.684;23.372;2022-11-15T07:49:43;78.33;;;34.33;;
12625;SDS011;6378;42.684;23.372;2022-11-15T07:52:10;81.70;;;34.00;;
12625;SDS011;6378;42.684;23.372;2022-11-15T07:54:36;74.37;;;32.33;;
12625;SDS011;6378;42.684;23.372;2022-11-15T07:57:02;78.73;;;33.37;;
12625;SDS011;6378;42.684;23.372;2022-11-15T07:59:27;65.00;;;31.40;;
12625;SDS011;6378;42.684;23.372;2022-11-15T08:01:52;86.63;;;41.03;;
12625;SDS011;6378;42.684;23.372;2022-11-15T08:04:18;69.77;;;33.50;;
12625;SDS011;6378;42.684;23.372;2022-11-15T08:06:43;68.17;;;32.20;;
12625;SDS011;6378;42.684;23.372;2022-11-15T08:09:09;75.40;;;34.13;;
12625;SDS011;6378;42.684;23.372;2022-11-15T08:11:34;75.83;;;34.23;;
12625;SDS011;6378;42.684;23.372;2022-11-15T08:13:59;81.63;;;36.23;;
12625;SDS011;6378;42.684;23.372;2022-11-15T08:16:25;72.93;;;34.77;;
12625;SDS011;6378;42.684;23.372;2022-11-15T08:18:50;80.80;;;35.67;;
12625;SDS011;6378;42.684;23.372;2022-11-15T08:21:18;80.20;;;36.23;;
12625;SDS011;6378;42.684;23.372;2022-11-15T08:23:45;85.40;;;38.13;;
12625;SDS011;6378;42.684;23.372;2022-11-15T08:26:11;80.37;;;38.93;;
12625;SDS011;6378;42.684;23.372;2022-11-15T08:28:37;80.90;;;36.50;;
12625;SDS011;6378;42.684;23.372;2022-11-15T08:31:02;82.10;;;37.77;;
12625;SDS011;6378;42.684;23.372;2022-11-15T08:33:29;91.80;;;43.97;;
12625;SDS011;6378;42.684;23.372;2022-11-15T08:36:01;82.30;;;38.63;;
12625;SDS011;6378;42.684;23.372;2022-11-15T08:38:27;83.77;;;38.83;;
12625;SDS011;6378;42.684;23.372;2022-11-15T08:40:58;95.30;;;47.40;;
12625;SDS011;6378;42.684;23.372;2022-11-15T08:43:26;87.27;;;39.33;;
12625;SDS011;6378;42.684;23.372;2022-11-15T08:45:51;94.20;;;42.40;;
12625;SDS011;6378;42.684;23.372;2022-11-15T08:48:17;88.27;;;40.30;;
12625;SDS011;6378;42.684;23.372;2022-11-15T08:50:42;85.23;;;40.50;;
12625;SDS011;6378;42.684;23.372;2022-11-15T08:53:08;96.27;;;45.87;;
12625;SDS011;6378;42.684;23.372;2022-11-15T08:55:37;96.80;;;42.03;;
12625;SDS011;6378;42.684;23.372;2022-11-15T08:58:04;98.10;;;42.67;;
12625;SDS011;6378;42.684;23.372;2022-11-15T09:00:29;99.20;;;43.53;;
12625;SDS011;6378;42.684;23.372;2022-11-15T09:02:54;110.27;;;47.90;;
12625;SDS011;6378;42.684;23.372;2022-11-15T09:05:20;113.33;;;48.33;;
12625;SDS011;6378;42.684;23.372;2022-11-15T09:07:45;114.20;;;49.97;;
12625;SDS011;6378;42.684;23.372;2022-11-15T09:10:11;113.07;;;48.53;;
12625;SDS011;6378;42.684;23.372;2022-11-15T09:12:36;113.57;;;48.90;;
12625;SDS011;6378;42.684;23.372;2022-11-15T09:15:02;113.93;;;48.33;;
12625;SDS011;6378;42.684;23.372;2022-11-15T09:17:28;110.33;;;47.03;;
12625;SDS011;6378;42.684;23.372;2022-11-15T09:19:53;113.73;;;47.27;;
12625;SDS011;6378;42.684;23.372;2022-11-15T09:22:19;103.80;;;46.77;;
12625;SDS011;6378;42.684;23.372;2022-11-15T09:24:44;98.70;;;46.03;;
12625;SDS011;6378;42.684;23.372;2022-11-15T09:27:09;111.83;;;48.83;;
12625;SDS011;6378;42.684;23.372;2022-11-15T09:29:35;111.97;;;49.33;;
12625;SDS011;6378;42.684;23.372;2022-11-15T09:32:01;100.10;;;47.87;;
12625;SDS011;6378;42.684;23.372;2022-11-15T09:34:27;117.90;;;50.73;;
12625;SDS011;6378;42.684;23.372;2022-11-15T09:36:52;140.03;;;57.70;;
12625;SDS011;6378;42.684;23.372;2022-11-15T09:39:18;136.77;;;56.13;;
12625;SDS011;6378;42.684;23.372;2022-11-15T09:50:43;110.63;;;50.27;;
12625;SDS011;6378;42.684;23.372;2022-11-15T09:53:13;114.10;;;51.67;;
12625;SDS011;6378;42.684;23.372;2022-11-15T09:55:47;135.00;;;57.20;;
12625;SDS011;6378;42.684;23.372;2022-11-15T10:04:26;116.40;;;52.63;;
12625;SDS011;6378;42.684;23.372;2022-11-15T10:07:02;125.70;;;55.77;;
12625;SDS011;6378;42.684;23.372;2022-11-15T10:09:41;125.83;;;54.00;;
12625;SDS011;6378;42.684;23.372;2022-11-15T10:12:09;111.13;;;53.03;;
12625;SDS011;6378;42.684;23.372;2022-11-15T10:14:37;112.50;;;50.10;;
12625;SDS011;6378;42.684;23.372;2022-11-15T10:19:54;100.00;;;49.23;;
12625;SDS011;6378;42.684;23.372;2022-11-15T10:22:48;108.37;;;48.87;;
12625;SDS011;6378;42.684;23.372;2022-11-15T10:27:42;83.43;;;43.13;;
12625;SDS011;6378;42.684;23.372;2022-11-15T10:30:13;82.83;;;43.77;;
12625;SDS011;6378;42.684;23.372;2022-11-15T10:32:41;84.07;;;40.23;;
12625;SDS011;6378;42.684;23.372;2022-11-15T10:37:44;104.63;;;49.13;;
12625;SDS011;6378;42.684;23.372;2022-11-15T10:42:41;95.00;;;46.17;;
12625;SDS011;6378;42.684;23.372;2022-11-15T10:45:23;99.93;;;47.70;;
12625;SDS011;6378;42.684;23.372;2022-11-15T10:47:51;105.53;;;50.80;;
12625;SDS011;6378;42.684;23.372;2022-11-15T10:50:29;92.93;;;46.10;;
12625;SDS011;6378;42.684;23.372;2022-11-15T10:52:56;90.17;;;46.23;;
12625;SDS011;6378;42.684;23.372;2022-11-15T10:55:24;86.40;;;44.57;;
12625;SDS011;6378;42.684;23.372;2022-11-15T10:57:53;88.77;;;46.10;;
12625;SDS011;6378;42.684;23.372;2022-11-15T11:00:37;85.37;;;41.93;;
12625;SDS011;6378;42.684;23.372;2022-11-15T11:03:23;73.90;;;40.00;;
12625;SDS011;6378;42.684;23.372;2022-11-15T11:09:00;85.60;;;41.33;;
12625;SDS011;6378;42.684;23.372;2022-11-15T11:11:43;79.90;;;40.93;;
12625;SDS011;6378;42.684;23.372;2022-11-15T11:14:19;80.77;;;40.13;;
12625;SDS011;6378;42.684;23.372;2022-11-15T11:16:48;79.60;;;39.43;;
12625;SDS011;6378;42.684;23.372;2022-11-15T11:19:18;77.97;;;40.10;;
12625;SDS011;6378;42.684;23.372;2022-11-15T11:37:56;83.83;;;42.13;;
12625;SDS011;6378;42.684;23.372;2022-11-15T11:40:29;84.77;;;43.10;;
12625;SDS011;6378;42.684;23.372;2022-11-15T11:50:49;75.20;;;41.20;;
12625;SDS011;6378;42.684;23.372;2022-11-15T11:53:16;77.30;;;41.53;;
12625;SDS011;6378;42.684;23.372;2022-11-15T11:55:56;77.40;;;39.60;;
12625;SDS011;6378;42.684;23.372;2022-11-15T11:58:41;67.83;;;38.77;;
12625;SDS011;6378;42.684;23.372;2022-11-15T12:01:15;72.37;;;37.73;;
12625;SDS011;6378;42.684;23.372;2022-11-15T12:11:56;72.77;;;37.87;;
12625;SDS011;6378;42.684;23.372;2022-11-15T12:16:54;75.47;;;41.17;;
12625;SDS011;6378;42.684;23.372;2022-11-15T12:19:20;73.43;;;41.83;;
12625;SDS011;6378;42.684;23.372;2022-11-15T12:21:47;74.77;;;40.10;;
12625;SDS011;6378;42.684;23.372;2022-11-15T12:24:16;74.53;;;43.40;;
12625;SDS011;6378;42.684;23.372;2022-11-15T12:26:48;77.73;;;41.40;;
12625;SDS011;6378;42.684;23.372;2022-11-15T12:29:25;78.93;;;43.80;;
12625;SDS011;6378;42.684;23.372;2022-11-15T12:31:57;72.03;;;42.73;;
12625;SDS011;6378;42.684;23.372;2022-11-15T12:36:53;81.37;;;40.90;;
12625;SDS011;6378;42.684;23.372;2022-11-15T12:39:19;76.57;;;42.13;;
12625;SDS011;6378;42.684;23.372;2022-11-15T13:02:56;76.43;;;42.97;;
12625;SDS011;6378;42.684;23.372;2022-11-15T13:10:29;74.27;;;42.77;;
12625;SDS011;6378;42.684;23.372;2022-11-15T13:13:06;82.80;;;47.03;;
12625;SDS011;6378;42.684;23.372;2022-11-15T13:15:55;89.30;;;48.93;;
12625;SDS011;6378;42.684;23.372;2022-11-15T13:18:39;90.90;;;48.27;;
12625;SDS011;6378;42.684;23.372;2022-11-15T13:21:22;93.03;;;48.87;;
12625;SDS011;6378;42.684;23.372;2022-11-15T13:24:12;90.10;;;49.53;;
12625;SDS011;6378;42.684;23.372;2022-11-15T13:26:39;91.40;;;48.83;;
12625;SDS011;6378;42.684;23.372;2022-11-15T13:29:12;87.10;;;48.27;;
12625;SDS011;6378;42.684;23.372;2022-11-15T13:31:42;90.33;;;51.97;;
12625;SDS011;6378;42.684;23.372;2022-11-15T13:37:01;95.73;;;53.97;;
12625;SDS011;6378;42.684;23.372;2022-11-15T13:39:30;93.53;;;52.53;;
12625;SDS011;6378;42.684;23.372;2022-11-15T13:41:57;94.00;;;51.47;;
12625;SDS011;6378;42.684;23.372;2022-11-15T13:44:30;108.63;;;60.40;;
12625;SDS011;6378;42.684;23.372;2022-11-15T13:47:12;97.97;;;52.97;;
12625;SDS011;6378;42.684;23.372;2022-11-15T13:49:39;84.13;;;49.73;;
12625;SDS011;6378;42.684;23.372;2022-11-15T13:52:05;86.10;;;48.40;;
12625;SDS011;6378;42.684;23.372;2022-11-15T13:54:46;85.13;;;48.73;;
12625;SDS011;6378;42.684;23.372;2022-11-15T13:57:21;90.80;;;48.47;;
12625;SDS011;6378;42.684;23.372;2022-11-15T13:59:54;81.00;;;46.90;;
12625;SDS011;6378;42.684;23.372;2022-11-15T14:02:26;84.80;;;47.87;;
12625;SDS011;6378;42.684;23.372;2022-11-15T14:04:55;87.03;;;47.70;;
12625;SDS011;6378;42.684;23.372;2022-11-15T14:07:25;86.27;;;49.17;;
12625;SDS011;6378;42.684;23.372;2022-11-15T14:09:53;87.67;;;49.20;;
12625;SDS011;6378;42.684;23.372;2022-11-15T14:12:32;82.20;;;45.57;;
12625;SDS011;6378;42.684;23.372;2022-11-15T14:15:02;84.27;;;48.53;;
12625;SDS011;6378;42.684;23.372;2022-11-15T14:17:48;91.83;;;48.50;;
12625;SDS011;6378;42.684;23.372;2022-11-15T14:20:35;84.37;;;46.40;;
12625;SDS011;6378;42.684;23.372;2022-11-15T14:23:45;80.17;;;44.23;;
12625;SDS011;6378;42.684;23.372;2022-11-15T14:25:52;75.93;;;45.83;;
12625;SDS011;6378;42.684;23.372;2022-11-15T14:30:47;79.10;;;44.87;;
12625;SDS011;6378;42.684;23.372;2022-11-15T14:33:19;85.50;;;47.00;;
12625;SDS011;6378;42.684;23.372;2022-11-15T14:36:02;84.63;;;45.00;;
12625;SDS011;6378;42.684;23.372;2022-11-15T14:38:30;74.27;;;39.43;;
12625;SDS011;6378;42.684;23.372;2022-11-15T14:40:55;75.37;;;41.47;;
12625;SDS011;6378;42.684;23.372;2022-11-15T14:43:21;75.13;;;40.30;;
12625;SDS011;6378;42.684;23.372;2022-11-15T14:45:47;81.43;;;40.30;;
12625;SDS011;6378;42.684;23.372;2022-11-15T14:48:12;74.43;;;41.53;;
12625;SDS011;6378;42.684;23.372;2022-11-15T14:50:38;74.00;;;42.50;;
12625;SDS011;6378;42.684;23.372;2022-11-15T14:53:04;96.90;;;49.10;;
12625;SDS011;6378;42.684;23.372;2022-11-15T14:55:31;94.17;;;49.43;;
12625;SDS011;6378;42.684;23.372;2022-11-15T14:58:01;89.23;;;49.40;;
12625;SDS011;6378;42.684;23.372;2022-11-15T15:00:28;99.03;;;51.23;;
12625;SDS011;6378;42.684;23.372;2022-11-15T15:02:57;96.53;;;50.33;;
12625;SDS011;6378;42.684;23.372;2022-11-15T15:07:50;100.13;;;52.47;;
12625;SDS011;6378;42.684;23.372;2022-11-15T15:10:19;92.60;;;49.53;;
12625;SDS011;6378;42.684;23.372;2022-11-15T15:12:45;93.77;;;51.77;;
12625;SDS011;6378;42.684;23.372;2022-11-15T15:15:14;101.40;;;53.23;;
12625;SDS011;6378;42.684;23.372;2022-11-15T15:17:46;103.43;;;53.93;;
12625;SDS011;6378;42.684;23.372;2022-11-15T15:20:12;99.50;;;50.83;;
12625;SDS011;6378;42.684;23.372;2022-11-15T15:22:38;95.57;;;52.30;;
12625;SDS011;6378;42.684;23.372;2022-11-15T15:25:10;98.80;;;51.93;;
12625;SDS011;6378;42.684;23.372;2022-11-15T15:27:45;97.50;;;50.80;;
12625;SDS011;6378;42.684;23.372;2022-11-15T15:30:11;93.27;;;49.60;;
12625;SDS011;6378;42.684;23.372;2022-11-15T15:32:37;90.93;;;50.60;;
12625;SDS011;6378;42.684;23.372;2022-11-15T15:35:03;103.23;;;51.67;;
12625;SDS011;6378;42.684;23.372;2022-11-15T15:37:28;117.03;;;60.80;;
12625;SDS011;6378;42.684;23.372;2022-11-15T15:39:55;109.97;;;59.27;;
12625;SDS011;6378;42.684;23.372;2022-11-15T15:42:22;107.20;;;53.50;;
12625;SDS011;6378;42.684;23.372;2022-11-15T15:44:48;102.20;;;52.07;;
12625;SDS011;6378;42.684;23.372;2022-11-15T15:47:22;103.63;;;52.67;;
12625;SDS011;6378;42.684;23.372;2022-11-15T15:49:49;102.27;;;54.33;;
12625;SDS011;6378;42.684;23.372;2022-11-15T15:52:15;104.90;;;54.93;;
12625;SDS011;6378;42.684;23.372;2022-11-15T15:54:40;115.37;;;60.50;;
12625;SDS011;6378;42.684;23.372;2022-11-15T15:57:07;159.90;;;85.63;;
12625;SDS011;6378;42.684;23.372;2022-11-15T15:59:33;128.70;;;68.03;;
12625;SDS011;6378;42.684;23.372;2022-11-15T16:01:59;163.03;;;91.97;;
12625;SDS011;6378;42.684;23.372;2022-11-15T16:04:24;181.73;;;100.33;;
12625;SDS011;6378;42.684;23.372;2022-11-15T16:06:50;197.43;;;115.80;;
12625;SDS011;6378;42.684;23.372;2022-11-15T16:09:17;209.20;;;115.17;;
12625;SDS011;6378;42.684;23.372;2022-11-15T16:12:04;197.00;;;109.10;;
12625;SDS011;6378;42.684;23.372;2022-11-15T16:14:30;182.57;;;103.97;;
12625;SDS011;6378;42.684;23.372;2022-11-15T16:16:56;172.53;;;96.90;;
12625;SDS011;6378;42.684;23.372;2022-11-15T16:19:21;203.33;;;114.53;;
12625;SDS011;6378;42.684;23.372;2022-11-15T16:21:47;183.07;;;100.57;;
12625;SDS011;6378;42.684;23.372;2022-11-15T16:24:12;177.30;;;96.73;;
12625;SDS011;6378;42.684;23.372;2022-11-15T16:26:38;168.57;;;96.47;;
12625;SDS011;6378;42.684;23.372;2022-11-15T16:29:04;166.87;;;88.20;;
12625;SDS011;6378;42.684;23.372;2022-11-15T16:31:29;152.23;;;82.10;;
12625;SDS011;6378;42.684;23.372;2022-11-15T16:33:54;147.43;;;74.47;;
12625;SDS011;6378;42.684;23.372;2022-11-15T16:36:21;141.17;;;77.90;;
12625;SDS011;6378;42.684;23.372;2022-11-15T16:38:48;155.63;;;85.03;;
12625;SDS011;6378;42.684;23.372;2022-11-15T16:41:14;149.23;;;80.17;;